createdAt,value
2023-03-10T00:01:28.654Z,5.00
2023-03-10T00:04:30.301Z,4.37
2023-03-10T00:07:31.969Z,3.90
2023-03-10T00:10:33.594Z,4.78
2023-03-10T00:13:38.244Z,7.57
2023-03-10T00:16:43.362Z,15.10
2023-03-10T00:19:44.964Z,14.90
2023-03-10T00:22:46.989Z,17.10
2023-03-10T00:25:59.358Z,15.75
2023-03-10T00:29:01.256Z,11.95
2023-03-10T00:32:06.469Z,10.47
2023-03-10T00:35:08.459Z,8.80
2023-03-10T00:38:13.001Z,8.95
2023-03-10T00:41:19.093Z,9.38
2023-03-10T00:44:21.322Z,11.57
2023-03-10T00:47:23.050Z,12.83
2023-03-10T00:50:24.724Z,11.07
2023-03-10T00:53:26.372Z,6.97
2023-03-10T00:56:28.254Z,6.60
2023-03-10T00:59:47.820Z,5.00
2023-03-10T01:02:53.026Z,3.70
2023-03-10T01:05:54.903Z,3.03
2023-03-10T01:08:56.530Z,7.65
2023-03-10T01:11:58.152Z,17.17
2023-03-10T01:15:02.929Z,20.17
2023-03-10T01:18:05.124Z,34.93
2023-03-10T01:21:06.896Z,19.27
2023-03-10T01:24:10.095Z,15.85
2023-03-10T01:27:11.819Z,11.75
2023-03-10T01:30:13.982Z,10.25
2023-03-10T01:33:19.795Z,7.13
2023-03-10T01:36:23.291Z,6.43
2023-03-10T01:39:24.859Z,5.93
2023-03-10T01:42:26.572Z,5.03
2023-03-10T01:45:28.208Z,4.10
2023-03-10T01:48:35.624Z,3.43
2023-03-10T01:51:40.212Z,3.00
2023-03-10T01:55:02.082Z,3.25
2023-03-10T01:58:07.516Z,3.50
2023-03-10T02:01:13.024Z,3.70
2023-03-10T02:04:23.432Z,3.40
2023-03-10T02:07:26.833Z,3.43
2023-03-10T02:10:28.511Z,3.90
2023-03-10T02:13:30.127Z,5.15
2023-03-10T02:16:35.207Z,6.95
2023-03-10T02:20:09.512Z,28.40
2023-03-10T02:23:12.333Z,35.37
2023-03-10T02:26:22.845Z,35.38
2023-03-10T02:29:31.459Z,31.65
2023-03-10T02:32:38.938Z,23.20
2023-03-10T02:35:43.459Z,21.37
2023-03-10T02:38:45.215Z,17.47
2023-03-10T02:41:46.868Z,15.00
2023-03-10T02:44:53.660Z,12.05
2023-03-10T02:47:58.264Z,8.82
2023-03-10T02:51:00.513Z,7.93
2023-03-10T02:54:06.530Z,6.90
2023-03-10T02:57:08.764Z,8.10
2023-03-10T03:00:11.880Z,8.85
2023-03-10T03:03:17.675Z,8.95
2023-03-10T03:06:22.297Z,8.53
2023-03-10T03:09:23.975Z,8.83
2023-03-10T03:12:25.630Z,10.20
2023-03-10T03:15:31.656Z,11.88
2023-03-10T03:18:33.591Z,14.50
2023-03-10T03:21:38.172Z,14.87
2023-03-10T03:24:39.836Z,20.57
2023-03-10T03:27:41.667Z,24.42
2023-03-10T03:30:47.510Z,26.00
2023-03-10T03:33:49.281Z,24.52
2023-03-10T03:36:51.780Z,16.57
2023-03-10T03:39:53.570Z,19.53
2023-03-10T03:42:55.380Z,18.02
2023-03-10T03:45:57.019Z,13.50
2023-03-10T03:49:02.627Z,16.70
2023-03-10T03:52:05.052Z,19.10
2023-03-10T03:55:07.802Z,18.00
2023-03-10T03:58:09.475Z,23.13
2023-03-10T04:01:12.774Z,25.02
2023-03-10T04:04:17.549Z,29.42
2023-03-10T04:07:22.158Z,30.30
2023-03-10T04:10:23.907Z,26.77
2023-03-10T04:13:25.697Z,26.45
2023-03-10T04:16:27.384Z,28.80
2023-03-10T04:19:33.400Z,26.67
2023-03-10T04:22:39.801Z,19.10
2023-03-10T04:25:43.102Z,12.43
2023-03-10T04:28:44.749Z,12.98
2023-03-10T04:31:55.802Z,12.25
2023-03-10T04:38:30.810Z,11.30
2023-03-10T04:41:32.479Z,10.33
2023-03-10T04:44:34.429Z,14.18
2023-03-10T04:47:36.125Z,16.10
2023-03-10T04:50:41.136Z,18.70
2023-03-10T04:53:42.846Z,19.80
2023-03-10T04:56:44.801Z,19.73
2023-03-10T04:59:46.464Z,18.98
2023-03-10T05:02:51.461Z,15.57
2023-03-10T05:05:53.037Z,14.60
2023-03-10T05:08:58.904Z,12.70
2023-03-10T05:12:00.468Z,18.70
2023-03-10T05:15:02.206Z,18.20
2023-03-10T05:18:07.332Z,24.63
2023-03-10T05:21:09.090Z,29.15
2023-03-10T05:24:10.737Z,43.87
2023-03-10T05:27:13.032Z,49.53
2023-03-10T05:30:16.074Z,58.42
2023-03-10T05:33:21.388Z,58.00
2023-03-10T05:36:23.101Z,67.43
2023-03-10T05:39:24.708Z,67.47
2023-03-10T05:42:26.292Z,65.60
2023-03-10T05:45:28.017Z,61.50
2023-03-10T05:48:33.671Z,58.15
2023-03-10T05:51:35.322Z,95.13
2023-03-10T05:54:37.117Z,79.53
2023-03-10T05:57:38.718Z,63.17
2023-03-10T06:00:40.314Z,52.40
2023-03-10T06:03:42.205Z,49.60
2023-03-10T06:06:44.186Z,44.75
2023-03-10T06:09:45.991Z,30.67
2023-03-10T06:12:47.663Z,8.53
2023-03-10T06:15:57.216Z,8.23
2023-03-10T06:18:58.946Z,7.72
2023-03-10T06:22:00.544Z,9.93
2023-03-10T06:25:02.210Z,7.53
2023-03-10T06:28:03.814Z,6.87
2023-03-10T06:31:09.525Z,6.70
2023-03-10T06:34:11.283Z,8.55
2023-03-10T06:37:12.950Z,6.80
2023-03-10T06:40:14.665Z,7.30
2023-03-10T06:43:16.551Z,7.23
2023-03-10T06:46:18.212Z,7.50
2023-03-10T06:49:19.922Z,45.88
2023-03-10T06:52:22.207Z,40.95
2023-03-10T06:55:23.870Z,71.10
2023-03-10T06:58:25.517Z,104.20
2023-03-10T07:01:29.127Z,124.57
2023-03-10T07:04:30.918Z,128.90
2023-03-10T07:07:32.669Z,45.35
2023-03-10T07:10:34.475Z,14.50
2023-03-10T07:13:36.190Z,9.83
2023-03-10T07:16:39.855Z,6.28
2023-03-10T07:19:41.596Z,5.70
2023-03-10T07:22:44.661Z,5.85
2023-03-10T07:25:46.367Z,5.63
2023-03-10T07:28:48.087Z,7.53
2023-03-10T07:31:49.787Z,6.05
2023-03-10T07:34:51.845Z,6.28
2023-03-10T07:37:53.624Z,5.40
2023-03-10T07:40:55.499Z,4.60
2023-03-10T07:43:57.220Z,5.50
2023-03-10T07:46:59.066Z,5.80
2023-03-10T07:50:00.656Z,5.30
2023-03-10T07:53:02.400Z,6.10
2023-03-10T07:56:07.886Z,5.40
2023-03-10T07:59:10.950Z,5.63
2023-03-10T08:02:13.613Z,5.32
2023-03-10T08:05:15.350Z,4.78
2023-03-10T08:08:17.248Z,5.40
2023-03-10T08:11:19.286Z,4.87
2023-03-10T08:14:24.144Z,5.17
2023-03-10T08:17:30.829Z,5.15
2023-03-10T08:20:32.651Z,6.15
2023-03-10T08:23:34.769Z,6.32
2023-03-10T08:26:37.375Z,6.13
2023-03-10T08:29:39.480Z,5.67
2023-03-10T08:32:41.404Z,8.45
2023-03-10T08:35:43.559Z,10.80
2023-03-10T08:38:45.342Z,9.88
2023-03-10T08:41:49.247Z,12.27
2023-03-10T08:44:51.162Z,6.60
2023-03-10T08:47:52.861Z,6.03
2023-03-10T08:50:54.542Z,6.22
2023-03-10T08:53:56.268Z,7.10
2023-03-10T08:56:58.035Z,6.80
2023-03-10T08:59:59.999Z,7.50
2023-03-10T09:03:03.255Z,10.57
2023-03-10T09:06:05.276Z,7.57
2023-03-10T09:09:07.841Z,9.25
2023-03-10T09:12:09.556Z,9.47
2023-03-10T09:15:11.278Z,8.83
2023-03-10T09:18:13.585Z,7.70
2023-03-10T09:21:16.593Z,6.07
2023-03-10T09:24:19.579Z,5.63
2023-03-10T09:27:21.360Z,5.80
2023-03-10T09:30:23.141Z,6.23
2023-03-10T09:33:25.092Z,6.20
2023-03-10T09:36:29.829Z,5.00
2023-03-10T09:39:33.775Z,10.98
2023-03-10T09:42:51.842Z,5.83
2023-03-10T09:46:13.810Z,4.70
2023-03-10T09:49:37.946Z,4.65
2023-03-10T09:52:46.086Z,5.22
2023-03-10T09:55:49.013Z,5.53
2023-03-10T09:58:56.901Z,4.83
2023-03-10T10:01:59.456Z,4.50
2023-03-10T10:05:04.257Z,7.70
2023-03-10T10:08:39.116Z,5.15
2023-03-10T10:11:40.806Z,4.82
2023-03-10T10:14:51.490Z,4.50
2023-03-10T10:18:21.434Z,4.90
2023-03-10T10:21:42.576Z,3.90
2023-03-10T10:25:13.734Z,3.92
2023-03-10T10:28:29.418Z,3.03
2023-03-10T10:31:33.395Z,4.07
2023-03-10T10:34:37.281Z,3.60
2023-03-10T10:37:43.085Z,3.60
2023-03-10T10:41:05.128Z,3.75
2023-03-10T10:44:09.740Z,4.25
2023-03-10T10:47:31.210Z,4.30
2023-03-10T10:50:34.591Z,4.13
2023-03-10T10:53:36.241Z,3.88
2023-03-10T10:56:41.090Z,3.58
2023-03-10T10:59:42.702Z,3.30
2023-03-10T11:02:44.403Z,3.30
2023-03-10T11:05:46.096Z,3.23
2023-03-10T11:08:51.386Z,3.70
2023-03-10T11:12:08.149Z,3.28
2023-03-10T11:15:30.273Z,2.90
2023-03-10T11:18:54.124Z,3.47
2023-03-10T11:21:59.323Z,3.50
2023-03-10T11:25:27.282Z,3.70
2023-03-10T11:28:50.792Z,3.38
2023-03-10T11:32:05.830Z,2.90
2023-03-10T11:35:29.507Z,3.30
2023-03-10T11:38:42.652Z,3.13
2023-03-10T11:41:46.356Z,3.03
2023-03-10T11:45:19.200Z,2.70
2023-03-10T11:48:36.124Z,2.72
2023-03-10T11:52:10.549Z,2.70
2023-03-10T11:55:20.189Z,3.63
2023-03-10T11:58:25.429Z,3.30
2023-03-10T12:01:47.441Z,2.92
2023-03-10T12:04:49.236Z,2.90
2023-03-10T12:07:56.164Z,2.37
2023-03-10T12:10:59.166Z,3.40
2023-03-10T12:14:01.355Z,2.22
2023-03-10T12:17:03.067Z,1.88
2023-03-10T12:20:15.403Z,1.85
2023-03-10T12:23:26.867Z,2.00
2023-03-10T12:26:37.642Z,2.10
2023-03-10T12:29:41.257Z,2.70
2023-03-10T12:32:47.681Z,2.58
2023-03-10T12:35:50.844Z,2.60
2023-03-10T12:38:57.897Z,2.53
2023-03-10T12:42:03.322Z,2.30
2023-03-10T12:45:17.488Z,2.20
2023-03-10T12:48:19.847Z,2.30
2023-03-10T12:51:23.839Z,2.38
2023-03-10T12:54:59.299Z,3.10
2023-03-10T12:58:48.046Z,3.17
2023-03-10T13:01:23.844Z,3.50
2023-03-10T13:04:25.652Z,3.42
2023-03-10T13:07:28.508Z,3.33
2023-03-10T13:10:32.064Z,3.30
2023-03-10T13:13:34.762Z,3.33
2023-03-10T13:16:36.768Z,3.60
2023-03-10T13:19:39.118Z,3.38
2023-03-10T13:22:40.990Z,3.60
2023-03-10T13:26:04.038Z,3.80
2023-03-10T13:29:21.864Z,3.80
2023-03-10T13:32:23.983Z,4.03
2023-03-10T13:35:31.120Z,3.80
2023-03-10T13:38:33.032Z,3.28
2023-03-10T13:41:37.586Z,3.63
2023-03-10T13:44:41.000Z,3.50
2023-03-10T13:47:42.690Z,3.33
2023-03-10T13:50:44.387Z,3.42
2023-03-10T13:53:47.808Z,2.90
2023-03-10T13:56:51.541Z,2.77
2023-03-10T13:59:54.109Z,2.77
2023-03-10T14:02:55.934Z,2.78
2023-03-10T14:05:57.574Z,2.28
2023-03-10T14:09:19.548Z,2.38
2023-03-10T14:12:36.037Z,2.30
2023-03-10T14:15:39.073Z,2.60
2023-03-10T14:18:42.151Z,2.60
2023-03-10T14:22:00.040Z,2.42
2023-03-10T14:25:08.493Z,2.97
2023-03-10T14:31:25.445Z,19.23
2023-03-10T14:34:27.286Z,25.75
2023-03-10T14:37:28.950Z,34.90
2023-03-10T14:40:30.589Z,15.52
2023-03-10T14:43:32.833Z,11.47
2023-03-10T14:46:35.531Z,7.50
2023-03-10T14:49:37.585Z,16.60
2023-03-10T14:52:39.482Z,37.00
2023-03-10T14:55:41.662Z,44.78
2023-03-10T14:58:48.223Z,60.37
2023-03-10T15:01:50.280Z,106.90
2023-03-10T15:04:52.382Z,82.82
2023-03-10T15:07:54.162Z,71.03
2023-03-10T15:10:55.814Z,53.00
2023-03-10T15:13:57.620Z,54.30
2023-03-10T15:16:59.423Z,18.47
2023-03-10T15:20:02.549Z,7.53
2023-03-10T15:23:04.229Z,4.60
2023-03-10T15:26:13.445Z,3.65
2023-03-10T15:29:16.152Z,2.93
2023-03-10T15:32:18.262Z,3.83
2023-03-10T15:35:21.761Z,14.57
2023-03-10T15:38:24.605Z,43.83
2023-03-10T15:41:26.219Z,31.08
2023-03-10T15:44:27.901Z,28.30
2023-03-10T15:47:29.586Z,20.53
2023-03-10T15:50:31.244Z,16.88
2023-03-10T15:53:32.828Z,49.15
2023-03-10T15:56:37.989Z,31.25
2023-03-10T15:59:44.345Z,19.57
2023-03-10T16:02:48.630Z,46.53
2023-03-10T16:05:50.439Z,44.95
2023-03-10T16:08:52.044Z,50.08
2023-03-10T16:11:57.382Z,45.80
2023-03-10T16:15:03.529Z,65.97
2023-03-10T16:18:09.300Z,62.80
2023-03-10T16:21:10.972Z,64.18
2023-03-10T16:24:12.768Z,75.32
2023-03-10T16:27:14.484Z,29.10
2023-03-10T16:30:21.618Z,12.03
2023-03-10T16:33:23.383Z,7.57
2023-03-10T16:36:26.566Z,4.32
2023-03-10T16:39:31.150Z,4.07
2023-03-10T16:42:35.924Z,3.90
2023-03-10T16:45:40.996Z,3.73
2023-03-10T16:48:44.405Z,4.13
2023-03-10T16:51:50.208Z,3.90
2023-03-10T16:55:00.277Z,4.00
2023-03-10T16:58:01.901Z,3.92
2023-03-10T17:01:03.754Z,4.07
2023-03-10T17:04:05.604Z,4.10
2023-03-10T17:07:07.462Z,3.67
2023-03-10T17:10:11.767Z,3.90
2023-03-10T17:13:13.419Z,4.20
2023-03-10T17:16:18.963Z,4.87
2023-03-10T17:19:25.384Z,4.93
2023-03-10T17:22:30.923Z,4.63
2023-03-10T17:28:38.438Z,4.82
2023-03-10T17:31:40.237Z,5.40
2023-03-10T17:34:41.985Z,5.20
2023-03-10T17:37:45.294Z,5.00
2023-03-10T17:40:47.025Z,4.72
2023-03-10T17:43:48.929Z,5.72
2023-03-10T17:46:56.116Z,5.97
2023-03-10T17:50:04.284Z,6.20
2023-03-10T17:53:06.213Z,6.07
2023-03-10T17:56:08.193Z,5.22
2023-03-10T17:59:10.990Z,5.30
2023-03-10T18:02:16.560Z,4.53
2023-03-10T18:05:22.302Z,5.57
2023-03-10T18:08:24.043Z,5.63
2023-03-10T18:11:26.426Z,3.90
2023-03-10T18:14:32.550Z,3.78
2023-03-10T18:17:34.129Z,3.77
2023-03-10T18:20:40.597Z,4.40
2023-03-10T18:23:42.868Z,3.65
2023-03-10T18:26:48.897Z,4.00
2023-03-10T18:29:55.296Z,3.70
2023-03-10T18:32:57.019Z,4.50
2023-03-10T18:36:05.503Z,4.40
2023-03-10T18:39:07.908Z,3.95
2023-03-10T18:42:14.639Z,3.65
2023-03-10T18:45:19.250Z,3.42
2023-03-10T18:48:23.875Z,3.20
2023-03-10T18:51:26.450Z,2.60
2023-03-10T18:54:31.340Z,2.72
2023-03-10T18:57:33.002Z,4.80
2023-03-10T19:00:34.628Z,10.25
2023-03-10T19:03:36.259Z,11.87
2023-03-10T19:06:37.856Z,13.40
2023-03-10T19:09:39.430Z,11.85
2023-03-10T19:12:44.150Z,8.05
2023-03-10T19:15:49.185Z,9.05
2023-03-10T19:18:50.824Z,9.80
2023-03-10T19:21:56.622Z,6.70
2023-03-10T19:24:58.378Z,6.15
2023-03-10T19:27:59.947Z,6.03
2023-03-10T19:31:05.053Z,5.57
2023-03-10T19:34:06.826Z,6.93
2023-03-10T19:37:08.572Z,7.87
2023-03-10T19:40:14.782Z,8.55
2023-03-10T19:43:16.815Z,8.27
2023-03-10T19:46:18.721Z,8.30
2023-03-10T19:49:20.573Z,8.70
2023-03-10T19:52:22.201Z,7.97
2023-03-10T19:55:24.223Z,7.30
2023-03-10T19:58:26.100Z,5.32
2023-03-10T20:01:31.445Z,5.53
2023-03-10T20:04:38.704Z,5.50
2023-03-10T20:07:44.451Z,4.97
2023-03-10T20:10:46.193Z,4.97
2023-03-10T20:13:47.806Z,4.80
2023-03-10T20:16:54.572Z,4.50
2023-03-10T20:19:59.049Z,4.50
2023-03-10T20:23:00.637Z,4.87
2023-03-10T20:26:03.754Z,4.65
2023-03-10T20:29:05.433Z,4.60
2023-03-10T20:32:07.718Z,4.18
2023-03-10T20:35:12.301Z,4.33
2023-03-10T20:38:17.678Z,4.13
2023-03-10T20:41:23.197Z,3.90
2023-03-10T20:44:24.874Z,4.68
2023-03-10T20:47:26.613Z,4.72
2023-03-10T20:50:32.557Z,5.20
2023-03-10T20:53:37.196Z,5.27
2023-03-10T20:56:38.902Z,5.32
2023-03-10T20:59:40.541Z,4.57
2023-03-10T21:02:47.527Z,3.70
2023-03-10T21:05:52.057Z,4.10
2023-03-10T21:08:57.577Z,4.43
2023-03-10T21:11:59.188Z,4.63
2023-03-10T21:15:00.837Z,3.92
2023-03-10T21:18:02.468Z,3.60
2023-03-10T21:21:12.446Z,3.60
2023-03-10T21:24:17.009Z,3.60
2023-03-10T21:27:20.942Z,3.90
2023-03-10T21:30:23.584Z,4.13
2023-03-10T21:33:31.728Z,3.63
2023-03-10T21:36:36.367Z,2.60
2023-03-10T21:39:40.973Z,2.90
2023-03-10T21:42:42.606Z,3.17
2023-03-10T21:45:44.428Z,2.80
2023-03-10T21:48:49.516Z,3.20
2023-03-10T21:51:51.158Z,2.80
2023-03-10T21:54:55.944Z,3.13
2023-03-10T21:57:57.699Z,3.55
2023-03-10T22:00:59.529Z,3.35
2023-03-10T22:04:04.390Z,3.95
2023-03-10T22:07:06.376Z,3.20
2023-03-10T22:10:12.747Z,4.37
2023-03-10T22:13:14.357Z,4.00
2023-03-10T22:16:20.223Z,4.88
2023-03-10T22:19:25.663Z,4.07
2023-03-10T22:22:27.322Z,3.70
2023-03-10T22:25:29.056Z,3.83
2023-03-10T22:28:30.696Z,4.43
2023-03-10T22:31:32.346Z,4.38
2023-03-10T22:34:37.033Z,3.30
2023-03-10T22:37:39.333Z,3.57
2023-03-10T22:40:40.951Z,3.53
2023-03-10T22:43:42.704Z,3.00
2023-03-10T22:46:45.521Z,3.58
2023-03-10T22:49:50.200Z,3.42
2023-03-10T22:52:55.697Z,3.80
2023-03-10T22:56:00.278Z,3.70
2023-03-10T22:59:03.971Z,3.42
2023-03-10T23:02:05.714Z,3.88
2023-03-10T23:05:11.463Z,4.18
2023-03-10T23:08:16.180Z,3.87
2023-03-10T23:11:17.835Z,4.03
2023-03-10T23:14:19.523Z,3.50
2023-03-10T23:17:21.218Z,3.70
2023-03-10T23:20:30.781Z,3.70
2023-03-10T23:23:35.614Z,3.67
2023-03-10T23:26:41.058Z,3.93
2023-03-10T23:29:46.568Z,3.50
2023-03-10T23:32:49.462Z,3.20
2023-03-10T23:35:54.115Z,3.20
2023-03-10T23:38:59.545Z,3.93
2023-03-10T23:42:04.110Z,4.43
2023-03-10T23:45:06.505Z,4.35
2023-03-10T23:48:11.554Z,3.95
2023-03-10T23:51:18.827Z,3.47
2023-03-10T23:54:22.463Z,3.20
2023-03-10T23:57:24.158Z,3.07
